Time;durP1;ratioP1;P1;durP2;ratioP2;P2;SDS_P1;SDS_P2;PMS_P1;PMS_P2;Temp;Humidity;BMP_temperature;BMP_pressure;BME280_temperature;BME280_humidity;BME280_pressure;Samples;Min_cycle;Max_cycle;Signal;HPM_P1;HPM_P2
2023/02/24 00:01:27;;;;;;;94.22;37.42;;;9.20;99.90;;;8.11;100.00;96904.03;5029798;28;20418;-77
2023/02/24 00:03:59;;;;;;;101.68;38.60;;;9.10;99.90;;;8.08;100.00;96907.16;5029931;28;20934;-77
2023/02/24 00:06:34;;;;;;;96.07;36.38;;;9.10;99.90;;;8.05;100.00;96909.47;5030002;28;20823;-77
2023/02/24 00:09:05;;;;;;;108.07;39.83;;;9.10;99.90;;;8.03;100.00;96901.84;5030760;28;20411;-77
2023/02/24 00:11:32;;;;;;;119.53;41.37;;;9.10;99.90;;;7.98;100.00;96901.75;5033726;28;20482;-77
2023/02/24 00:13:58;;;;;;;109.15;40.17;;;9.00;99.90;;;7.94;100.00;96902.50;5033971;28;20403;-77
2023/02/24 00:16:25;;;;;;;104.82;40.60;;;8.90;99.90;;;7.89;100.00;96908.53;5034120;28;20402;-76
2023/02/24 00:18:52;;;;;;;102.35;39.97;;;8.90;99.90;;;7.90;100.00;96902.19;5033874;28;20777;-77
2023/02/24 00:21:17;;;;;;;95.22;36.90;;;8.90;99.90;;;7.93;100.00;96900.91;5046381;22;20462;-75
2023/02/24 00:23:46;;;;;;;100.03;37.78;;;9.00;99.90;;;7.97;100.00;96900.16;5032703;28;20450;-75
2023/02/24 00:26:15;;;;;;;96.60;36.47;;;9.00;99.90;;;8.04;100.00;96894.72;5033228;28;20841;-77
2023/02/24 00:28:43;;;;;;;104.75;39.17;;;9.00;99.90;;;8.08;100.00;96893.97;5033421;28;20490;-74
2023/02/24 00:31:14;;;;;;;121.70;45.10;;;9.10;99.90;;;8.12;100.00;96889.78;5033394;28;20878;-76
2023/02/24 00:33:42;;;;;;;107.40;42.45;;;9.10;99.90;;;8.17;100.00;96896.97;5032172;28;20414;-74
2023/02/24 00:36:11;;;;;;;101.75;39.70;;;9.20;99.90;;;8.20;100.00;96893.84;5033615;28;20403;-76
2023/02/24 00:38:38;;;;;;;129.93;48.20;;;9.20;99.90;;;8.21;100.00;96887.53;5033542;28;20403;-77
2023/02/24 00:41:14;;;;;;;107.13;43.63;;;9.20;99.90;;;8.27;100.00;96885.75;5033353;28;20975;-75
2023/02/24 00:43:45;;;;;;;122.75;45.80;;;9.20;99.90;;;8.27;100.00;96889.16;5033322;28;20460;-76
2023/02/24 00:46:13;;;;;;;114.13;46.42;;;9.30;99.90;;;8.29;100.00;96892.34;5033343;28;20422;-75
2023/02/24 00:48:39;;;;;;;122.28;47.08;;;9.30;99.90;;;8.30;100.00;96882.59;5033440;28;20439;-75
2023/02/24 00:51:07;;;;;;;104.28;44.88;;;9.30;99.90;;;8.33;100.00;96884.78;5033181;28;20443;-76
2023/02/24 00:53:33;;;;;;;105.70;43.78;;;9.30;99.90;;;8.34;100.00;96889.03;5032964;28;20410;-75
2023/02/24 00:55:59;;;;;;;98.83;41.90;;;9.30;99.90;;;8.34;100.00;96887.19;5033242;28;20927;-76
2023/02/24 00:58:28;;;;;;;90.13;40.33;;;9.30;99.90;;;8.37;100.00;96885.88;5033151;28;20435;-76
2023/02/24 01:00:54;;;;;;;99.57;43.28;;;9.40;99.90;;;8.34;100.00;96887.19;5031737;28;20415;-76
2023/02/24 01:03:20;;;;;;;84.78;38.33;;;9.30;99.90;;;8.34;100.00;96881.91;5032948;28;20490;-74
2023/02/24 01:05:46;;;;;;;107.38;43.78;;;9.30;99.90;;;8.33;100.00;96884.78;5032979;28;20421;-76
2023/02/24 01:08:20;;;;;;;89.03;40.55;;;9.30;99.90;;;8.34;100.00;96881.09;5032842;28;20880;-76
2023/02/24 01:12:00;;;;;;;101.70;43.63;;;9.30;99.90;;;8.33;100.00;96875.03;5033009;28;20430;-76
2023/02/24 01:13:42;;;;;;;86.03;37.97;;;9.30;99.90;;;8.34;100.00;96871.38;5032799;28;20407;-76
2023/02/24 01:16:08;;;;;;;92.40;40.03;;;9.30;99.90;;;8.35;100.00;96875.56;5032859;28;20399;-76
2023/02/24 01:18:36;;;;;;;109.75;45.25;;;9.40;99.90;;;8.36;100.00;96876.38;5032663;28;20406;-77
2023/02/24 01:21:04;;;;;;;97.80;43.50;;;9.40;99.90;;;8.35;100.00;96878.19;5031451;28;20909;-76
2023/02/24 01:23:31;;;;;;;89.75;39.92;;;9.40;99.90;;;8.36;100.00;96861.34;5031280;28;21192;-75
2023/02/24 01:25:58;;;;;;;103.45;44.47;;;9.40;99.90;;;8.36;100.00;96865.81;5032629;28;20442;-76
2023/02/24 01:28:25;;;;;;;87.55;39.05;;;9.40;99.90;;;8.35;100.00;96862.38;5032829;28;20823;-76
2023/02/24 01:30:53;;;;;;;89.95;39.13;;;9.40;99.90;;;8.34;100.00;96858.19;5032550;28;20469;-76
2023/02/24 01:33:20;;;;;;;94.50;38.75;;;9.40;99.90;;;8.36;100.00;96848.16;5032344;28;20766;-76
2023/02/24 01:35:46;;;;;;;95.55;40.80;;;9.40;99.90;;;8.36;100.00;96852.63;5032527;28;20435;-76
2023/02/24 01:38:12;;;;;;;90.07;39.60;;;9.40;99.90;;;8.37;100.00;96860.28;5032348;28;20446;-76
2023/02/24 01:40:38;;;;;;;83.55;38.42;;;9.40;99.90;;;8.38;100.00;96853.19;5032396;28;20783;-76
2023/02/24 01:43:07;;;;;;;87.03;39.40;;;9.40;99.90;;;8.38;100.00;96853.19;5032077;28;20409;-76
2023/02/24 01:45:35;;;;;;;90.95;40.28;;;9.40;99.90;;;8.34;100.00;96858.19;5047574;28;20434;-76
2023/02/24 01:48:07;;;;;;;86.80;38.80;;;9.30;99.90;;;8.30;100.00;96857.03;5032218;28;20403;-76
2023/02/24 01:50:35;;;;;;;84.07;36.88;;;9.30;99.90;;;8.32;100.00;96849.72;5032057;28;20402;-76
2023/02/24 01:53:06;;;;;;;99.80;41.50;;;9.30;99.90;;;8.31;100.00;96847.31;5031682;28;20477;-76
2023/02/24 01:55:35;;;;;;;86.05;37.20;;;9.30;99.90;;;8.30;100.00;96838.56;5032067;28;20404;-76
2023/02/24 01:58:09;;;;;;;93.38;38.42;;;9.30;99.90;;;8.29;100.00;96839.63;5031820;28;20396;-76
2023/02/24 02:00:43;;;;;;;86.10;36.88;;;9.30;99.90;;;8.32;100.00;96844.44;5031852;28;20406;-75
2023/02/24 02:03:25;;;;;;;94.40;39.17;;;9.30;99.90;;;8.30;100.00;96841.22;5031706;28;20903;-76
2023/02/24 02:05:54;;;;;;;90.95;38.17;;;9.30;99.90;;;8.30;100.00;96838.56;5031709;28;20765;-75
2023/02/24 02:08:22;;;;;;;85.43;37.38;;;9.30;99.90;;;8.30;100.00;96838.56;5031734;28;20893;-75
2023/02/24 02:10:52;;;;;;;88.50;37.13;;;9.30;99.90;;;8.30;100.00;96837.78;5030390;28;20432;-76
2023/02/24 02:13:21;;;;;;;94.13;39.60;;;9.30;99.90;;;8.28;100.00;96831.94;5031474;28;20904;-76
2023/02/24 02:16:01;;;;;;;95.80;40.70;;;9.30;99.90;;;8.27;100.00;96831.16;5031747;28;20411;-76
2023/02/24 02:18:46;;;;;;;83.53;35.00;;;9.30;99.90;;;8.29;100.00;96833.53;5031695;28;20391;-76
2023/02/24 02:22:02;;;;;;;97.07;40.47;;;9.30;99.90;;;8.27;100.00;96830.38;5031347;28;20976;-75
2023/02/24 02:24:47;;;;;;;101.28;41.00;;;9.30;99.90;;;8.25;100.00;96822.72;5028401;28;20480;-76
2023/02/24 02:28:18;;;;;;;102.15;42.22;;;9.30;99.90;;;8.24;100.00;96809.78;5030188;28;20830;-75
2023/02/24 02:31:11;;;;;;;89.43;39.83;;;9.20;99.90;;;8.21;100.00;96815.53;5003824;28;20865;-75
2023/02/24 02:34:18;;;;;;;87.20;38.53;;;9.20;99.90;;;8.19;100.00;96807.09;5031008;28;20398;-75
2023/02/24 02:36:57;;;;;;;104.90;43.28;;;9.20;99.90;;;8.20;100.00;96806.84;5031275;28;20399;-76
2023/02/24 02:39:42;;;;;;;98.97;42.60;;;9.20;99.90;;;8.19;100.00;96810.53;5031220;28;20396;-75
2023/02/24 02:42:24;;;;;;;98.97;41.60;;;9.20;99.90;;;8.15;100.00;96804.97;5030208;28;21459;-76
2023/02/24 02:45:03;;;;;;;94.63;41.08;;;9.20;99.90;;;8.13;100.00;96804.41;5031171;28;20445;-75
2023/02/24 02:47:36;;;;;;;93.60;40.08;;;9.20;99.90;;;8.11;100.00;96797.81;5031127;28;20473;-75
2023/02/24 02:50:11;;;;;;;106.80;42.30;;;9.20;99.90;;;8.09;100.00;96797.25;5031088;28;20438;-75
2023/02/24 02:52:45;;;;;;;92.30;39.17;;;9.10;99.90;;;8.06;100.00;96798.53;5030870;28;20395;-75
2023/02/24 02:55:17;;;;;;;108.90;45.83;;;9.10;99.90;;;8.02;100.00;96792.19;5029805;28;20938;-74
2023/02/24 02:57:48;;;;;;;108.85;43.83;;;9.00;99.90;;;7.99;100.00;96789.25;5030986;28;20407;-75
2023/02/24 03:00:20;;;;;;;107.53;44.55;;;9.00;99.90;;;7.98;100.00;96783.16;5030869;28;20458;-75
2023/02/24 03:02:50;;;;;;;110.47;46.70;;;9.00;99.90;;;8.00;100.00;96782.94;5030753;28;20734;-75
2023/02/24 03:05:21;;;;;;;109.85;43.03;;;9.00;99.90;;;8.01;100.00;96787.16;5030632;28;20769;-75
2023/02/24 03:07:53;;;;;;;100.97;39.22;;;9.00;99.90;;;8.04;100.00;96787.44;5030820;28;20402;-75
2023/02/24 03:10:23;;;;;;;108.75;43.90;;;9.00;99.90;;;8.06;100.00;96780.09;5030693;28;20413;-75
2023/02/24 03:12:52;;;;;;;109.95;45.17;;;9.10;99.90;;;8.08;100.00;96778.00;5030362;28;20425;-75
2023/02/24 03:15:22;;;;;;;98.38;40.90;;;9.10;99.90;;;8.08;100.00;96766.66;5030656;28;20490;-75
2023/02/24 03:17:54;;;;;;;110.40;42.85;;;9.10;99.90;;;8.09;100.00;96768.25;5030604;28;20395;-74
2023/02/24 03:20:28;;;;;;;101.63;41.20;;;9.10;99.90;;;8.08;100.00;96761.38;5030345;28;20430;-76
2023/02/24 03:22:59;;;;;;;106.03;41.50;;;9.10;99.90;;;8.09;100.00;96763.00;5030232;28;20482;-76
2023/02/24 03:25:37;;;;;;;117.20;42.87;;;9.10;99.90;;;8.09;100.00;96760.34;5030489;28;20403;-74
2023/02/24 03:28:12;;;;;;;114.03;42.90;;;9.10;99.90;;;8.07;100.00;96752.69;5029165;28;20901;-76
2023/02/24 03:30:43;;;;;;;112.80;45.38;;;9.10;99.90;;;8.09;100.00;96753.25;5030360;28;20411;-76
2023/02/24 03:33:17;;;;;;;113.13;44.80;;;9.10;99.90;;;8.09;100.00;96760.34;5030209;28;20540;-76
2023/02/24 03:35:44;;;;;;;110.20;44.00;;;9.10;99.90;;;8.09;100.00;96755.06;5030413;28;20395;-76
2023/02/24 03:38:12;;;;;;;117.30;44.85;;;9.10;99.90;;;8.05;100.00;96748.69;5030358;28;20415;-76
2023/02/24 03:40:42;;;;;;;124.53;43.77;;;9.10;99.90;;;8.05;100.00;96756.59;5030178;28;20457;-76
2023/02/24 03:43:16;;;;;;;104.68;39.90;;;9.00;99.90;;;8.05;100.00;96760.03;5029843;28;20908;-76
2023/02/24 03:45:43;;;;;;;117.22;44.85;;;9.00;99.90;;;8.04;100.00;96757.69;5029952;28;20804;-76
2023/02/24 03:48:10;;;;;;;108.50;42.15;;;9.00;99.90;;;8.06;100.00;96763.47;5030143;28;20908;-76
2023/02/24 03:50:39;;;;;;;109.22;42.22;;;9.10;99.90;;;8.07;100.00;96760.59;5029961;28;20453;-76
2023/02/24 03:53:32;;;;;;;100.20;37.17;;;9.10;99.90;;;8.08;100.00;96764.81;5029882;28;20399;-76
2023/02/24 03:56:12;;;;;;;104.93;39.80;;;9.10;99.90;;;8.08;100.00;96758.75;5030240;28;20873;-76
2023/02/24 03:58:53;;;;;;;117.18;42.88;;;9.10;99.90;;;8.08;100.00;96751.66;5030070;28;20399;-76
2023/02/24 04:01:30;;;;;;;105.77;40.10;;;9.10;99.90;;;8.10;100.00;96752.19;5029817;28;20433;-76
2023/02/24 04:04:03;;;;;;;109.38;40.80;;;9.10;99.90;;;8.11;100.00;96750.34;5029853;28;20932;-76
2023/02/24 04:06:40;;;;;;;112.65;42.65;;;9.10;99.90;;;8.13;100.00;96756.94;5030034;28;20422;-76
2023/02/24 04:09:25;;;;;;;169.73;57.75;;;9.10;99.90;;;8.07;100.00;96765.06;5030002;28;20426;-76
2023/02/24 04:11:57;;;;;;;137.25;52.28;;;9.10;99.90;;;8.01;100.00;96764.22;5029767;28;20902;-76
2023/02/24 04:14:31;;;;;;;133.23;50.75;;;9.00;99.90;;;8.00;100.00;96759.22;5030056;28;20778;-76
2023/02/24 04:17:06;;;;;;;137.10;50.20;;;9.00;99.90;;;8.02;100.00;96765.84;5030041;28;20478;-76
2023/02/24 04:19:39;;;;;;;137.03;49.63;;;9.00;99.90;;;8.03;100.00;96756.88;5029596;28;20465;-76
2023/02/24 04:22:09;;;;;;;139.43;51.03;;;9.00;99.90;;;7.99;100.00;96762.88;5029587;28;20406;-76
2023/02/24 04:24:39;;;;;;;134.27;53.07;;;9.00;99.90;;;7.98;100.00;96756.00;5029760;28;20413;-75
2023/02/24 04:27:10;;;;;;;135.30;51.30;;;9.00;99.90;;;7.99;100.00;96758.41;5029788;28;20430;-74
2023/02/24 04:29:47;;;;;;;136.20;51.17;;;9.00;99.90;;;7.99;100.00;96753.13;5029639;28;20395;-74
2023/02/24 04:32:17;;;;;;;133.02;47.85;;;9.00;99.90;;;7.99;100.00;96753.13;5029430;28;20426;-75
2023/02/24 04:34:44;;;;;;;136.80;51.70;;;9.00;99.90;;;7.99;100.00;96753.13;5029730;28;20434;-76
2023/02/24 04:37:10;;;;;;;149.52;51.38;;;9.00;99.90;;;7.95;100.00;96741.53;5029817;28;20846;-76
2023/02/24 04:39:37;;;;;;;128.88;46.15;;;9.00;99.90;;;7.97;100.00;96742.03;5029719;28;20490;-75
2023/02/24 04:42:04;;;;;;;137.50;49.65;;;9.00;99.90;;;7.96;100.00;96737.84;5029468;28;20406;-76
2023/02/24 04:44:31;;;;;;;145.50;52.00;;;9.00;99.90;;;7.97;100.00;96744.69;5029816;28;20403;-76
2023/02/24 04:46:59;;;;;;;138.10;47.13;;;9.00;99.90;;;7.98;100.00;96742.84;5029680;28;20423;-76
2023/02/24 04:49:25;;;;;;;163.23;55.10;;;9.00;99.90;;;7.98;100.00;96732.28;5029628;28;20408;-76
2023/02/24 04:51:51;;;;;;;141.32;49.83;;;9.00;99.90;;;7.95;100.00;96733.63;5029464;28;20411;-76
2023/02/24 04:54:19;;;;;;;162.80;53.70;;;9.00;99.90;;;7.95;100.00;96728.34;5030361;28;20435;-76
2023/02/24 04:56:51;;;;;;;171.32;53.95;;;9.00;99.90;;;7.96;100.00;96723.88;5031937;28;20494;-76
2023/02/24 04:59:20;;;;;;;165.23;55.35;;;9.00;99.90;;;7.95;100.00;96717.00;5033444;28;20815;-76
2023/02/24 05:01:50;;;;;;;167.68;55.13;;;9.00;99.90;;;7.93;100.00;96714.63;5032898;28;20501;-76
2023/02/24 05:04:17;;;;;;;152.40;51.72;;;8.90;99.90;;;7.92;100.00;96717.50;5033155;28;20415;-76
2023/02/24 05:06:43;;;;;;;158.27;52.58;;;8.90;99.90;;;7.92;100.00;96709.59;5033052;28;20411;-76
2023/02/24 05:09:13;;;;;;;144.63;49.03;;;8.90;99.90;;;7.92;100.00;96707.75;5033012;28;20407;-76
2023/02/24 05:11:41;;;;;;;167.90;55.38;;;8.90;99.90;;;7.93;100.00;96709.34;5032696;28;20397;-76
2023/02/24 05:14:13;;;;;;;161.70;53.03;;;8.90;99.90;;;7.91;100.00;96708.78;5032819;28;20465;-76
2023/02/24 05:16:41;;;;;;;182.07;58.20;;;8.90;99.90;;;7.91;100.00;96703.53;5032839;28;20410;-74
2023/02/24 05:21:52;;;;;;;181.80;58.95;;;8.90;99.90;;;7.86;100.00;96690.31;5032521;28;20409;-76
2023/02/24 05:24:18;;;;;;;167.97;54.63;;;8.90;99.90;;;7.89;100.00;96689.81;5032800;28;20410;-76
2023/02/24 05:26:44;;;;;;;165.38;56.13;;;8.90;99.90;;;7.84;100.00;96689.75;5032680;28;20414;-76
2023/02/24 05:29:12;;;;;;;195.00;59.85;;;8.80;99.90;;;7.79;100.00;96679.19;5032594;28;20445;-76
2023/02/24 05:31:38;;;;;;;167.57;55.47;;;8.80;99.90;;;7.73;100.00;96677.56;5032359;28;20841;-76
2023/02/24 05:34:06;;;;;;;171.45;52.75;;;8.70;99.90;;;7.71;100.00;96674.38;5035052;28;20410;-76
2023/02/24 05:36:37;;;;;;;142.50;48.20;;;8.70;99.90;;;7.73;100.00;96673.09;5032562;28;20510;-76
2023/02/24 05:39:06;;;;;;;169.25;52.78;;;8.70;99.90;;;7.74;100.00;96669.38;5032551;28;20469;-76
2023/02/24 05:41:34;;;;;;;168.23;49.65;;;8.80;99.90;;;7.75;100.00;96663.06;5032197;28;20410;-76
2023/02/24 05:44:07;;;;;;;184.45;56.88;;;8.80;99.90;;;7.76;100.00;96664.66;5032411;28;20403;-76
2023/02/24 05:46:39;;;;;;;155.20;47.83;;;8.80;99.90;;;7.75;100.00;96663.06;5031438;28;20448;-76
2023/02/24 05:49:13;;;;;;;166.77;49.85;;;8.80;99.90;;;7.77;100.00;96657.56;5291781;23;20932;-74
2023/02/24 05:51:42;;;;;;;202.23;60.22;;;8.80;99.90;;;7.77;100.00;96653.09;5029227;28;20494;-74
2023/02/24 05:54:10;;;;;;;160.98;52.75;;;8.80;99.90;;;7.76;100.00;96654.13;5031523;28;20407;-74
2023/02/24 05:56:43;;;;;;;156.10;49.53;;;8.80;99.90;;;7.77;100.00;96649.66;5029178;28;20395;-74
2023/02/24 05:59:11;;;;;;;174.38;53.47;;;8.80;99.90;;;7.77;100.00;96647.00;5031479;28;20438;-74
2023/02/24 06:01:40;;;;;;;178.45;54.10;;;8.80;99.90;;;7.77;100.00;96647.00;5028729;28;20877;-74
2023/02/24 06:04:08;;;;;;;180.52;56.50;;;8.80;99.90;;;7.75;100.00;96651.72;5031441;28;20404;-75
2023/02/24 06:06:35;;;;;;;166.88;50.83;;;8.70;99.90;;;7.74;100.00;96650.16;5030798;28;20439;-76
2023/02/24 06:09:06;;;;;;;179.48;56.13;;;8.80;99.90;;;7.74;100.00;96650.94;5031269;28;20431;-76
2023/02/24 06:11:33;;;;;;;180.23;54.85;;;8.80;99.90;;;7.76;100.00;96648.06;5031056;28;20416;-75
2023/02/24 06:13:59;;;;;;;170.40;52.33;;;8.80;99.90;;;7.77;100.00;96647.00;5031311;28;20435;-74
2023/02/24 06:16:25;;;;;;;185.23;52.80;;;8.80;99.90;;;7.78;100.00;96648.59;5030861;28;20457;-74
2023/02/24 06:18:55;;;;;;;191.10;53.95;;;8.80;99.90;;;7.78;100.00;96646.78;5029742;28;20423;-74
2023/02/24 06:21:21;;;;;;;183.60;54.67;;;8.80;99.90;;;7.79;100.00;96642.31;5043236;22;20531;-72
2023/02/24 06:23:47;;;;;;;217.98;59.95;;;8.80;99.90;;;7.77;100.00;96639.91;5030536;28;20414;-72
2023/02/24 06:26:18;;;;;;;183.27;53.95;;;8.80;99.90;;;7.78;100.00;96644.13;5030777;28;20419;-72
2023/02/24 06:28:44;;;;;;;193.82;55.70;;;8.80;99.90;;;7.79;100.00;96642.31;5030955;28;20889;-72
2023/02/24 06:31:12;;;;;;;179.45;51.65;;;8.80;99.90;;;7.77;100.00;96642.53;5028799;28;20490;-72
2023/02/24 06:33:40;;;;;;;193.82;55.30;;;8.80;99.90;;;7.77;100.00;96645.19;5030862;28;20797;-72
2023/02/24 06:36:08;;;;;;;184.93;52.75;;;8.80;99.90;;;7.77;100.00;96639.13;5030804;28;20490;-73
2023/02/24 06:38:36;;;;;;;194.98;53.50;;;8.80;99.90;;;7.78;100.00;96633.59;5025371;28;20416;-73
2023/02/24 06:41:09;;;;;;;203.02;56.38;;;8.80;99.90;;;7.79;100.00;96639.66;5028479;28;20410;-73
2023/02/24 06:43:37;;;;;;;210.30;59.40;;;8.80;99.90;;;7.78;100.00;96638.88;5029718;28;20465;-72
2023/02/24 06:46:04;;;;;;;203.82;59.35;;;8.80;99.90;;;7.80;100.00;96645.72;5026185;28;20504;-73
2023/02/24 06:48:32;;;;;;;212.75;59.25;;;8.80;99.90;;;7.81;100.00;96636.78;5027050;28;20956;-72
2023/02/24 06:51:02;;;;;;;211.47;58.70;;;8.80;99.90;;;7.81;100.00;96634.16;5025316;28;20402;-72
2023/02/24 06:53:30;;;;;;;209.32;59.63;;;8.80;99.90;;;7.81;100.00;96624.41;5031302;28;20399;-72
2023/02/24 06:55:56;;;;;;;194.57;56.67;;;8.80;99.90;;;7.82;100.00;96630.47;5029742;28;20395;-72
2023/02/24 06:58:23;;;;;;;188.30;54.08;;;8.80;99.90;;;7.82;100.00;96620.69;5031944;28;20931;-73
2023/02/24 07:00:58;;;;;;;211.43;58.55;;;8.80;99.90;;;7.83;100.00;96632.03;5033321;28;20398;-73
2023/02/24 07:03:38;;;;;;;197.82;55.30;;;8.80;99.90;;;7.84;100.00;96625.72;5031826;28;20402;-72
2023/02/24 07:06:22;;;;;;;200.57;53.63;;;8.90;99.90;;;7.85;100.00;96627.31;5030149;28;20431;-73
2023/02/24 07:08:51;;;;;;;201.55;55.35;;;8.90;99.90;;;7.87;100.00;96627.88;5029874;28;20398;-72
2023/02/24 07:11:19;;;;;;;199.68;53.08;;;8.90;99.90;;;7.89;100.00;96637.13;5031116;28;21168;-73
2023/02/24 07:13:46;;;;;;;198.00;53.45;;;8.90;99.90;;;7.89;100.00;96623.16;5030934;28;20418;-70
2023/02/24 07:16:14;;;;;;;188.43;51.90;;;8.90;99.90;;;7.91;100.00;96619.19;5031160;28;20505;-70
2023/02/24 07:18:42;;;;;;;221.90;61.97;;;8.90;99.90;;;7.87;100.00;96620.75;5027711;28;20394;-72
2023/02/24 07:21:12;;;;;;;236.35;61.60;;;8.90;99.90;;;7.85;100.00;96616.78;5026108;28;20405;-72
2023/02/24 07:23:40;;;;;;;169.93;54.40;;;8.80;99.90;;;7.78;100.00;96619.63;5030062;28;20822;-70
2023/02/24 07:26:10;;;;;;;175.27;51.38;;;8.80;99.90;;;7.83;100.00;96617.03;5027717;28;20939;-70
2023/02/24 07:28:38;;;;;;;195.50;56.13;;;8.80;99.90;;;7.86;100.00;96621.00;5027152;28;20385;-70
2023/02/24 07:31:07;;;;;;;177.05;52.95;;;8.90;99.90;;;7.89;100.00;96618.69;5039356;28;20401;-70
2023/02/24 07:33:35;;;;;;;204.02;57.70;;;8.90;99.90;;;7.94;100.00;96615.28;5036631;28;20403;-70
2023/02/24 07:36:07;;;;;;;164.85;53.50;;;8.90;99.90;;;7.90;100.00;96612.34;5036489;28;20410;-71
2023/02/24 07:38:35;;;;;;;168.30;51.03;;;8.90;99.90;;;7.93;100.00;96614.47;5035507;28;20527;-71
2023/02/24 07:41:01;;;;;;;170.05;50.35;;;8.90;99.90;;;7.96;100.00;96611.34;5034177;28;20398;-70
2023/02/24 07:43:29;;;;;;;168.77;51.25;;;9.00;99.90;;;7.97;100.00;96612.16;5036501;28;20964;-70
2023/02/24 07:45:56;;;;;;;160.23;49.55;;;9.00;99.90;;;7.96;100.00;96605.28;5036612;28;20439;-70
2023/02/24 07:48:24;;;;;;;170.13;51.22;;;9.00;99.90;;;7.96;100.00;96618.47;5038226;28;20410;-70
2023/02/24 07:50:51;;;;;;;171.37;54.10;;;9.00;99.90;;;7.88;100.00;96614.44;5039945;28;20952;-70
2023/02/24 07:53:17;;;;;;;149.23;50.28;;;8.90;99.90;;;7.86;100.00;96608.63;5036017;28;20440;-71
2023/02/24 07:55:45;;;;;;;165.17;51.13;;;8.80;99.90;;;7.91;100.00;96608.66;5036645;28;20475;-70
2023/02/24 07:58:11;;;;;;;137.43;46.75;;;8.90;99.90;;;7.92;100.00;96606.81;5036381;28;20841;-70
2023/02/24 08:00:58;;;;;;;146.17;48.80;;;8.90;99.90;;;7.94;100.00;96608.16;5039920;28;20407;-73
2023/02/24 08:03:26;;;;;;;132.80;45.88;;;8.90;99.90;;;7.96;100.00;96606.06;5028857;28;20922;-72
2023/02/24 08:05:59;;;;;;;129.50;46.30;;;8.90;99.90;;;7.97;100.00;96605.00;5025124;28;20430;-71
2023/02/24 08:08:25;;;;;;;134.90;48.88;;;9.00;99.90;;;7.93;100.00;96605.78;5041021;28;20971;-71
2023/02/24 08:11:02;;;;;;;121.78;44.08;;;8.90;99.90;;;8.02;100.00;96604.25;5028659;28;20403;-72
2023/02/24 08:13:36;;;;;;;131.15;43.53;;;8.90;99.90;;;8.11;100.00;96593.00;5021705;28;20796;-71
2023/02/24 08:16:06;;;;;;;131.73;46.23;;;9.10;99.90;;;8.14;100.00;96594.31;5029727;28;20403;-71
2023/02/24 08:18:36;;;;;;;108.20;40.78;;;9.10;99.90;;;8.19;100.00;96586.47;5029801;28;20414;-72
2023/02/24 08:21:03;;;;;;;100.97;42.42;;;9.20;99.90;;;8.08;100.00;96585.59;5029617;28;20433;-71
2023/02/24 08:23:33;;;;;;;102.10;41.55;;;9.00;99.90;;;8.05;100.00;96582.66;5029706;28;20402;-71
2023/02/24 08:26:02;;;;;;;102.03;41.47;;;9.00;99.90;;;8.21;100.00;96576.44;5029822;28;20464;-71
2023/02/24 08:28:27;;;;;;;96.70;40.42;;;9.10;99.90;;;8.31;100.00;96579.16;5029862;28;20403;-71
2023/02/24 08:30:53;;;;;;;92.82;41.60;;;9.30;99.90;;;8.33;100.00;96571.00;5031931;28;20399;-71
2023/02/24 08:33:22;;;;;;;85.43;38.77;;;9.30;99.90;;;8.38;100.00;96571.81;5033352;28;20931;-71
2023/02/24 08:35:51;;;;;;;81.97;36.53;;;9.30;99.90;;;8.62;100.00;96571.38;5033549;28;20401;-71
2023/02/24 08:38:21;;;;;;;73.63;33.47;;;9.50;99.90;;;8.56;100.00;96572.44;5033581;28;20472;-71
2023/02/24 08:40:49;;;;;;;70.40;33.42;;;9.50;99.90;;;8.95;100.00;96564.91;5033433;28;20425;-71
2023/02/24 08:45:59;;;;;;;68.65;33.22;;;10.00;99.90;;;9.06;100.00;96556.75;5033190;28;20445;-72
2023/02/24 08:48:36;;;;;;;65.70;32.10;;;10.10;99.90;;;8.94;100.00;96561.47;5032729;28;20398;-72
2023/02/24 08:51:09;;;;;;;59.28;28.35;;;9.90;99.90;;;9.12;100.00;96547.78;5029983;28;20399;-72
2023/02/24 08:53:39;;;;;;;63.15;29.80;;;10.00;99.90;;;9.23;100.00;96559.16;5032407;28;20407;-72
2023/02/24 08:56:11;;;;;;;57.50;28.40;;;10.20;99.90;;;9.26;100.00;96548.84;5031249;28;20498;-72
2023/02/24 08:58:39;;;;;;;58.67;28.05;;;10.20;99.90;;;9.25;100.00;96544.59;5031315;28;20457;-74
2023/02/24 09:01:17;;;;;;;61.38;28.25;;;10.10;99.90;;;9.15;100.00;96541.97;5029545;28;20453;-72
2023/02/24 09:03:46;;;;;;;56.45;26.35;;;10.10;99.90;;;9.17;100.00;96541.72;5030394;28;20387;-72
2023/02/24 09:06:15;;;;;;;55.85;26.52;;;10.10;99.90;;;9.37;100.00;96540.94;5029956;28;20446;-73
2023/02/24 09:08:44;;;;;;;51.63;24.52;;;10.20;99.90;;;9.34;100.00;96542.25;5032566;28;20407;-73
2023/02/24 09:11:13;;;;;;;62.70;27.15;;;10.20;99.90;;;9.61;100.00;96539.34;5032160;28;20395;-72
2023/02/24 09:13:50;;;;;;;57.08;25.75;;;10.50;99.90;;;9.70;100.00;96529.81;5032252;28;20457;-71
2023/02/24 09:16:17;;;;;;;43.20;21.10;;;10.60;99.90;;;9.59;100.00;96541.47;5030464;28;20532;-72
2023/02/24 09:18:45;;;;;;;47.30;22.30;;;10.40;99.90;;;9.57;100.00;96538.28;5032426;28;20481;-72
2023/02/24 09:22:04;;;;;;;37.00;19.65;;;10.50;99.90;;;9.70;100.00;96535.09;5030605;28;20458;-71
2023/02/24 09:24:05;;;;;;;38.88;19.77;;;10.60;99.90;;;9.81;100.00;96538.53;5032142;28;20442;-73
2023/02/24 09:26:41;;;;;;;38.08;17.75;;;10.70;99.90;;;9.87;100.00;96522.41;5032045;28;20414;-72
2023/02/24 09:29:32;;;;;;;39.30;19.77;;;10.80;99.90;;;9.92;100.00;96524.25;5032265;28;20399;-72
2023/02/24 09:32:03;;;;;;;37.42;17.48;;;10.80;99.90;;;9.72;100.00;96525.06;5029136;28;20796;-73
2023/02/24 09:34:31;;;;;;;39.83;16.90;;;10.60;99.90;;;9.55;100.00;96525.34;5032168;28;20888;-71
2023/02/24 09:37:01;;;;;;;39.03;16.87;;;10.50;99.90;;;9.51;100.00;96518.22;5032077;28;20398;-72
2023/02/24 09:39:29;;;;;;;36.60;15.90;;;10.40;99.90;;;9.51;100.00;96521.66;5032013;28;20468;-71
2023/02/24 09:44:36;;;;;;;40.92;18.25;;;10.50;99.90;;;9.45;100.00;96516.63;5031828;28;20453;-72
2023/02/24 09:47:12;;;;;;;44.38;18.70;;;10.40;99.90;;;9.50;100.00;96509.50;5031720;28;20422;-71
2023/02/24 09:49:54;;;;;;;34.35;16.85;;;10.40;99.90;;;9.60;100.00;96511.34;5029882;28;20885;-72
2023/02/24 09:52:38;;;;;;;51.53;21.05;;;10.50;99.90;;;9.73;100.00;96505.50;5029877;28;20439;-72
2023/02/24 09:55:26;;;;;;;52.80;25.27;;;10.70;99.90;;;9.82;100.00;96503.13;5030548;28;20403;-72
2023/02/24 10:00:58;;;;;;;54.47;25.42;;;10.80;99.90;;;9.87;100.00;96500.47;5024928;28;20403;-72
2023/02/24 10:03:41;;;;;;;37.10;15.57;;;10.80;99.90;;;9.86;100.00;96498.88;5027077;28;20410;-74
2023/02/24 10:06:19;;;;;;;29.95;13.20;;;10.80;99.90;;;9.79;100.00;96493.88;5029290;28;20410;-73
2023/02/24 10:08:52;;;;;;;32.20;14.63;;;10.70;99.90;;;9.82;100.00;96488.06;5025829;28;20413;-71
2023/02/24 10:11:31;;;;;;;31.10;13.23;;;10.70;99.90;;;9.65;100.00;96493.63;5027869;28;20407;-72
2023/02/24 10:14:18;;;;;;;31.83;13.88;;;10.50;99.90;;;9.86;100.00;96488.28;5028996;28;20465;-71
2023/02/24 10:17:06;;;;;;;30.50;15.43;;;10.70;99.90;;;10.02;100.00;96480.06;5028548;28;20399;-71
2023/02/24 10:19:33;;;;;;;51.80;23.13;;;10.90;99.90;;;10.04;100.00;96485.09;5027556;28;20439;-71
2023/02/24 10:22:21;;;;;;;53.42;24.52;;;11.00;99.90;;;10.08;100.00;96486.13;5030144;28;20410;-71
2023/02/24 10:25:09;;;;;;;49.88;22.25;;;11.00;99.90;;;10.05;100.00;96503.34;5029039;28;20399;-72
2023/02/24 10:27:51;;;;;;;57.05;24.60;;;11.00;99.90;;;9.99;100.00;96491.19;5027535;28;20445;-71
2023/02/24 10:30:39;;;;;;;47.40;22.65;;;10.90;99.90;;;9.95;100.00;96484.84;5030529;28;20427;-72
2023/02/24 10:33:19;;;;;;;45.47;20.25;;;10.90;99.90;;;9.91;100.00;96486.47;5031210;28;20403;-72
2023/02/24 10:35:46;;;;;;;45.13;20.30;;;10.80;99.90;;;9.84;100.00;96478.03;5031400;28;20461;-71
2023/02/24 10:38:13;;;;;;;43.13;19.77;;;10.80;99.90;;;9.78;100.00;96475.63;5031452;28;20399;-71